Time,TemperatureF,DewpointF,PressureIn,WindDirection,WindDirectionDegrees,WindSpeedMPH,WindSpeedGustMPH,Humidity,HourlyPrecipIn,Conditions,Clouds,dailyrainin,SolarRadiationWatts/m^2,SoftwareType,DateUTC
2013-01-14 00:04:00,37.9,37.4,29.97,SSW,196,0.0,0.0,98,0.00,,,0.00,0,Wunderground v.1.15,2013-01-14 05:04:00,
2013-01-14 00:10:00,37.9,37.1,29.97,SSW,196,0.0,0.0,97,0.00,,,0.00,0,Wunderground v.1.15,2013-01-14 05:10:00,
2013-01-14 00:20:00,37.9,37.4,29.96,SSW,196,0.0,0.0,98,0.00,,,0.00,0,Wunderground v.1.15,2013-01-14 05:20:00,
2013-01-14 00:25:00,38.5,37.7,29.96,North,355,0.0,0.0,97,0.00,,,0.00,0,Wunderground v.1.15,2013-01-14 05:25:00,
2013-01-14 00:35:00,38.6,38.1,29.96,SW,227,0.0,0.0,98,0.00,,,0.00,0,Wunderground v.1.15,2013-01-14 05:35:00,
2013-01-14 00:40:00,38.5,38.0,29.95,SW,227,0.0,0.0,98,0.00,,,0.00,0,Wunderground v.1.15,2013-01-14 05:40:00,
2013-01-14 00:50:00,38.4,37.9,29.96,SW,227,0.0,0.0,98,0.00,,,0.00,0,Wunderground v.1.15,2013-01-14 05:50:00,
2013-01-14 01:00:00,38.4,37.6,29.96,SW,227,0.0,0.0,97,0.00,,,0.00,0,Wunderground v.1.15,2013-01-14 06:00:00,
2013-01-14 01:10:00,38.4,37.6,29.95,SW,227,0.0,0.0,97,0.00,,,0.00,0,Wunderground v.1.15,2013-01-14 06:10:00,
2013-01-14 01:20:00,38.5,38.0,29.95,SW,227,0.0,0.0,98,0.00,,,0.00,0,Wunderground v.1.15,2013-01-14 06:20:00,
2013-01-14 01:30:00,38.5,38.0,29.95,SW,227,0.0,0.0,98,0.00,,,0.00,0,Wunderground v.1.15,2013-01-14 06:30:00,
2013-01-14 01:40:00,38.4,37.6,29.95,SW,227,0.0,0.0,97,0.00,,,0.00,0,Wunderground v.1.15,2013-01-14 06:40:00,
2013-01-14 01:50:00,38.3,37.5,29.96,SW,227,0.0,0.0,97,0.00,,,0.00,0,Wunderground v.1.15,2013-01-14 06:50:00,
2013-01-14 02:00:00,38.2,37.4,29.96,SW,227,0.0,0.0,97,0.00,,,0.00,0,Wunderground v.1.15,2013-01-14 07:00:00,
2013-01-14 02:10:00,38.1,37.6,29.96,SW,227,0.0,0.0,98,0.00,,,0.00,0,Wunderground v.1.15,2013-01-14 07:10:00,
2013-01-14 02:20:00,37.9,37.4,29.95,SW,227,0.0,0.0,98,0.00,,,0.00,0,Wunderground v.1.15,2013-01-14 07:20:00,
2013-01-14 02:30:00,37.8,37.0,29.96,SW,227,0.0,0.0,97,0.00,,,0.00,0,Wunderground v.1.15,2013-01-14 07:30:00,
2013-01-14 02:35:00,37.7,36.9,29.95,SW,227,0.0,0.0,97,0.00,,,0.00,0,Wunderground v.1.15,2013-01-14 07:35:00,
2013-01-14 02:45:00,37.6,37.1,29.95,SW,227,0.0,0.0,98,0.00,,,0.00,0,Wunderground v.1.15,2013-01-14 07:45:00,
2013-01-14 02:55:00,37.4,36.9,29.94,SW,227,0.0,0.0,98,0.00,,,0.00,0,Wunderground v.1.15,2013-01-14 07:55:00,
2013-01-14 03:00:00,37.4,36.9,29.94,SW,227,0.0,0.0,98,0.00,,,0.00,0,Wunderground v.1.15,2013-01-14 08:00:00,
2013-01-14 03:10:00,37.3,36.8,29.94,SW,227,0.0,0.0,98,0.00,,,0.00,0,Wunderground v.1.15,2013-01-14 08:10:00,
2013-01-14 03:20:00,37.2,36.4,29.94,SW,227,0.0,0.0,97,0.00,,,0.00,0,Wunderground v.1.15,2013-01-14 08:20:00,
2013-01-14 03:25:00,37.2,36.4,29.93,SW,227,0.0,0.0,97,0.00,,,0.00,0,Wunderground v.1.15,2013-01-14 08:25:00,
2013-01-14 03:35:00,37.2,36.4,29.92,SW,218,0.0,2.0,97,0.00,,,0.00,0,Wunderground v.1.15,2013-01-14 08:35:00,
2013-01-14 03:45:00,37.6,37.1,29.91,SW,217,0.0,0.0,98,0.00,,,0.00,0,Wunderground v.1.15,2013-01-14 08:45:00,
2013-01-14 03:55:00,38.5,38.0,29.92,SW,217,0.0,0.0,98,0.00,,,0.00,0,Wunderground v.1.15,2013-01-14 08:55:00,
2013-01-14 04:00:00,39.3,38.8,29.91,SW,218,0.0,1.0,98,0.00,,,0.00,0,Wunderground v.1.15,2013-01-14 09:00:00,
2013-01-14 04:10:00,41.2,40.7,29.91,SW,215,0.0,1.0,98,0.00,,,0.00,0,Wunderground v.1.15,2013-01-14 09:10:00,
2013-01-14 04:20:00,42.2,41.7,29.90,SSE,161,0.0,0.0,98,0.00,,,0.00,0,Wunderground v.1.15,2013-01-14 09:20:00,
2013-01-14 04:30:00,43.4,42.9,29.92,NW,313,1.0,1.0,98,0.00,,,0.00,0,Wunderground v.1.15,2013-01-14 09:30:00,
2013-01-14 04:39:00,44.7,44.2,29.90,SSE,153,2.0,3.0,98,0.00,,,0.00,0,Wunderground v.1.15,2013-01-14 09:39:00,
2013-01-14 04:45:00,45.0,44.5,29.90,West,275,2.0,3.0,98,0.00,,,0.00,0,Wunderground v.1.15,2013-01-14 09:45:00,
2013-01-14 04:55:00,45.1,44.6,29.91,SSW,199,1.0,1.0,98,0.00,,,0.00,0,Wunderground v.1.15,2013-01-14 09:55:00,
2013-01-14 05:00:00,45.2,44.7,29.91,NW,326,1.0,3.0,98,0.00,,,0.00,0,Wunderground v.1.15,2013-01-14 10:00:00,
2013-01-14 05:10:00,45.3,44.8,29.92,NW,319,1.0,1.0,98,0.00,,,0.00,0,Wunderground v.1.15,2013-01-14 10:10:00,
2013-01-14 05:20:00,45.4,44.9,29.89,ESE,117,2.0,2.0,98,0.00,,,0.00,0,Wunderground v.1.15,2013-01-14 10:20:00,
2013-01-14 05:30:00,45.0,44.5,29.91,ESE,117,1.0,1.0,98,0.00,,,0.00,0,Wunderground v.1.15,2013-01-14 10:30:00,
2013-01-14 05:40:00,44.0,43.5,29.89,SSE,159,1.0,3.0,98,0.00,,,0.00,0,Wunderground v.1.15,2013-01-14 10:40:00,
2013-01-14 05:50:00,43.9,43.4,29.89,South,181,2.0,2.0,98,0.00,,,0.00,0,Wunderground v.1.15,2013-01-14 10:50:00,
2013-01-14 06:00:00,44.3,43.8,29.89,SSE,157,1.0,1.0,98,0.00,,,0.00,0,Wunderground v.1.15,2013-01-14 11:00:00,
2013-01-14 06:10:00,44.8,44.3,29.89,SSE,167,2.0,3.0,98,0.00,,,0.00,0,Wunderground v.1.15,2013-01-14 11:10:00,
2013-01-14 06:20:00,45.2,44.7,29.85,SSE,164,3.0,5.0,98,0.00,,,0.00,0,Wunderground v.1.15,2013-01-14 11:20:00,
2013-01-14 06:30:00,45.9,45.4,29.82,SE,132,5.0,5.0,98,0.00,,,0.00,0,Wunderground v.1.15,2013-01-14 11:30:00,
2013-01-14 06:40:00,46.2,45.7,29.86,NW,325,4.0,4.0,98,0.00,,,0.00,0,Wunderground v.1.15,2013-01-14 11:40:00,
2013-01-14 06:49:00,46.5,46.0,29.84,South,191,3.0,7.0,98,0.00,,,0.00,0,Wunderground v.1.15,2013-01-14 11:49:00,
2013-01-14 06:55:00,46.5,46.0,29.85,SSE,160,3.0,7.0,98,0.00,,,0.00,0,Wunderground v.1.15,2013-01-14 11:55:00,
2013-01-14 07:00:00,46.5,46.0,29.87,NNW,327,2.0,4.0,98,0.00,,,0.00,0,Wunderground v.1.15,2013-01-14 12:00:00,
2013-01-14 07:10:00,46.4,45.9,29.90,WNW,282,3.0,3.0,98,0.00,,,0.00,0,Wunderground v.1.15,2013-01-14 12:10:00,
2013-01-14 07:20:00,46.0,45.5,29.89,South,173,2.0,2.0,98,0.00,,,0.00,0,Wunderground v.1.15,2013-01-14 12:20:00,
2013-01-14 07:30:00,45.4,44.9,29.89,NNW,333,1.0,1.0,98,0.00,,,0.00,5,Wunderground v.1.15,2013-01-14 12:30:00,
2013-01-14 07:40:00,44.8,44.3,29.90,SW,220,0.0,0.0,98,0.00,,,0.00,7,Wunderground v.1.15,2013-01-14 12:40:00,
2013-01-14 07:45:00,44.3,43.8,29.91,SW,220,0.0,0.0,98,0.00,,,0.00,9,Wunderground v.1.15,2013-01-14 12:45:00,
2013-01-14 07:55:00,43.1,42.6,29.91,NW,320,0.0,1.0,98,0.00,,,0.00,14,Wunderground v.1.15,2013-01-14 12:55:00,
2013-01-14 08:00:00,42.5,41.7,29.92,NW,320,0.0,1.0,97,0.00,,,0.00,16,Wunderground v.1.15,2013-01-14 13:00:00,
2013-01-14 08:10:00,41.8,41.0,29.92,NW,320,0.0,0.0,97,0.00,,,0.00,19,Wunderground v.1.15,2013-01-14 13:10:00,
2013-01-14 08:20:00,41.3,40.5,29.93,NW,320,0.0,0.0,97,0.00,,,0.00,21,Wunderground v.1.15,2013-01-14 13:20:00,
2013-01-14 08:30:00,40.9,40.1,29.93,NW,320,0.0,0.0,97,0.00,,,0.00,30,Wunderground v.1.15,2013-01-14 13:30:00,
2013-01-14 08:40:00,40.6,39.8,29.93,NW,320,0.0,0.0,97,0.00,,,0.00,44,Wunderground v.1.15,2013-01-14 13:40:00,
2013-01-14 08:50:00,40.3,39.5,29.94,NW,320,0.0,0.0,97,0.00,,,0.00,44,Wunderground v.1.15,2013-01-14 13:50:00,
2013-01-14 08:55:00,40.2,39.4,29.94,NW,320,0.0,0.0,97,0.00,,,0.00,46,Wunderground v.1.15,2013-01-14 13:55:00,
2013-01-14 09:00:00,40.2,39.7,29.94,NW,320,0.0,2.0,98,0.00,,,0.00,62,Wunderground v.1.15,2013-01-14 14:00:00,
2013-01-14 09:10:00,40.0,39.2,29.94,NW,320,0.0,0.0,97,0.00,,,0.00,97,Wunderground v.1.15,2013-01-14 14:10:00,
2013-01-14 09:20:00,40.7,40.2,29.94,NW,320,0.0,0.0,98,0.00,,,0.00,127,Wunderground v.1.15,2013-01-14 14:20:00,
2013-01-14 09:30:00,40.9,40.4,29.96,NW,320,0.0,0.0,98,0.00,,,0.00,102,Wunderground v.1.15,2013-01-14 14:30:00,
2013-01-14 09:40:00,41.5,41.0,29.96,NW,320,0.0,0.0,98,0.00,,,0.00,102,Wunderground v.1.15,2013-01-14 14:40:00,
2013-01-14 09:50:00,41.7,41.2,29.97,NW,320,0.0,0.0,98,0.00,,,0.00,97,Wunderground v.1.15,2013-01-14 14:50:00,
2013-01-14 10:00:00,42.3,41.8,29.97,NW,320,0.0,0.0,98,0.00,,,0.00,102,Wunderground v.1.15,2013-01-14 15:00:00,
2013-01-14 10:10:00,42.4,41.9,29.98,NW,320,0.0,0.0,98,0.00,,,0.00,134,Wunderground v.1.15,2013-01-14 15:10:00,
2013-01-14 10:20:00,42.7,42.2,29.97,NW,320,0.0,0.0,98,0.00,,,0.00,155,Wunderground v.1.15,2013-01-14 15:20:00,
2013-01-14 10:30:00,43.4,42.9,29.96,SW,220,0.0,0.0,98,0.00,,,0.00,185,Wunderground v.1.15,2013-01-14 15:30:00,
2013-01-14 10:40:00,44.1,43.6,29.96,SW,220,0.0,0.0,98,0.00,,,0.00,262,Wunderground v.1.15,2013-01-14 15:40:00,
2013-01-14 10:50:00,45.3,44.8,29.95,SW,220,0.0,0.0,98,0.00,,,0.00,181,Wunderground v.1.15,2013-01-14 15:50:00,
2013-01-14 10:55:00,45.5,45.0,29.95,SSW,201,0.0,0.0,98,0.00,,,0.00,239,Wunderground v.1.15,2013-01-14 15:55:00,
2013-01-14 11:00:00,46.5,46.0,29.95,SSW,196,0.0,0.0,98,0.00,,,0.00,250,Wunderground v.1.15,2013-01-14 16:00:00,
2013-01-14 11:10:00,46.8,46.3,29.95,SSW,198,0.0,2.0,98,0.00,,,0.00,200,Wunderground v.1.15,2013-01-14 16:10:00,
2013-01-14 11:19:00,46.9,46.4,29.95,SSW,198,0.0,0.0,98,0.00,,,0.00,63,Wunderground v.1.15,2013-01-14 16:19:00,
2013-01-14 11:25:00,46.2,45.7,29.95,SSW,198,0.0,0.0,98,0.00,,,0.00,278,Wunderground v.1.15,2013-01-14 16:25:00,
2013-01-14 11:35:00,48.3,47.8,29.94,South,169,1.0,1.0,98,0.00,,,0.00,471,Wunderground v.1.15,2013-01-14 16:35:00,
2013-01-14 11:45:00,51.6,51.1,29.94,SSE,148,2.0,5.0,98,0.00,,,0.00,485,Wunderground v.1.15,2013-01-14 16:45:00,
2013-01-14 11:50:00,52.4,51.9,29.94,WSW,241,2.0,2.0,98,0.00,,,0.00,452,Wunderground v.1.15,2013-01-14 16:50:00,
2013-01-14 12:00:00,54.1,51.2,29.95,NW,315,2.0,2.0,90,0.00,,,0.00,461,Wunderground v.1.15,2013-01-14 17:00:00,
2013-01-14 12:10:00,55.4,50.3,29.94,SW,214,2.0,2.0,83,0.00,,,0.00,459,Wunderground v.1.15,2013-01-14 17:10:00,
2013-01-14 12:20:00,55.9,50.2,29.94,SSW,198,1.0,4.0,81,0.00,,,0.00,461,Wunderground v.1.15,2013-01-14 17:20:00,
2013-01-14 12:30:00,56.8,49.7,29.94,SE,146,2.0,2.0,77,0.00,,,0.00,455,Wunderground v.1.15,2013-01-14 17:30:00,
2013-01-14 12:40:00,58.3,49.3,29.94,NW,306,1.0,4.0,72,0.00,,,0.00,455,Wunderground v.1.15,2013-01-14 17:40:00,
2013-01-14 12:49:00,59.2,47.4,29.95,NW,311,4.0,11.0,65,0.00,,,0.00,446,Wunderground v.1.15,2013-01-14 17:49:00,
2013-01-14 12:55:00,59.0,44.7,29.95,NW,306,5.0,11.0,59,0.00,,,0.00,446,Wunderground v.1.15,2013-01-14 17:55:00,
2013-01-14 13:00:00,59.2,44.4,29.96,WNW,302,4.0,5.0,58,0.00,,,0.00,448,Wunderground v.1.15,2013-01-14 18:00:00,
2013-01-14 13:10:00,58.7,44.4,29.96,NW,320,8.0,8.0,59,0.00,,,0.00,438,Wunderground v.1.15,2013-01-14 18:10:00,
2013-01-14 13:20:00,58.2,44.4,29.97,NW,304,8.0,9.0,60,0.00,,,0.00,346,Wunderground v.1.15,2013-01-14 18:20:00,
2013-01-14 13:25:00,58.0,44.6,29.97,North,350,8.0,9.0,61,0.00,,,0.00,97,Wunderground v.1.15,2013-01-14 18:25:00,
2013-01-14 13:35:00,57.6,44.7,29.97,West,262,6.0,7.0,62,0.00,,,0.00,431,Wunderground v.1.15,2013-01-14 18:35:00,
2013-01-14 13:45:00,57.2,44.3,29.98,NW,325,7.0,7.0,62,0.00,,,0.00,406,Wunderground v.1.15,2013-01-14 18:45:00,
2013-01-14 13:50:00,57.2,44.7,29.98,WNW,300,5.0,6.0,63,0.00,,,0.00,250,Wunderground v.1.15,2013-01-14 18:50:00,
2013-01-14 14:00:00,57.2,43.9,29.99,SW,235,6.0,6.0,61,0.00,,,0.00,211,Wunderground v.1.15,2013-01-14 19:00:00,
2013-01-14 14:10:00,57.1,40.6,30.00,NNW,334,7.0,9.0,54,0.00,,,0.00,127,Wunderground v.1.15,2013-01-14 19:10:00,
2013-01-14 14:20:00,56.7,39.7,30.00,NW,309,9.0,14.0,53,0.00,,,0.00,49,Wunderground v.1.15,2013-01-14 19:20:00,
2013-01-14 14:25:00,56.4,40.0,30.01,NNW,334,10.0,14.0,54,0.00,,,0.00,62,Wunderground v.1.15,2013-01-14 19:25:00,
2013-01-14 14:30:00,56.2,40.2,30.01,NW,325,10.0,15.0,55,0.00,,,0.00,39,Wunderground v.1.15,2013-01-14 19:30:00,
2013-01-14 14:35:00,55.8,40.3,30.02,North,360,9.0,15.0,56,0.00,,,0.00,39,Wunderground v.1.15,2013-01-14 19:35:00,
2013-01-14 14:40:00,55.5,39.6,30.02,NNW,339,9.0,9.0,55,0.00,,,0.00,51,Wunderground v.1.15,2013-01-14 19:40:00,
2013-01-14 14:45:00,55.2,39.8,30.03,WNW,286,6.0,9.0,56,0.00,,,0.00,46,Wunderground v.1.15,2013-01-14 19:45:00,
2013-01-14 14:55:00,54.6,39.7,30.03,WNW,296,4.0,12.0,57,0.00,,,0.00,56,Wunderground v.1.15,2013-01-14 19:55:00,
2013-01-14 15:00:00,54.5,39.6,30.04,NW,316,6.0,10.0,57,0.00,,,0.00,28,Wunderground v.1.15,2013-01-14 20:00:00,
2013-01-14 15:10:00,53.6,39.2,30.04,North,351,5.0,8.0,58,0.00,,,0.00,33,Wunderground v.1.15,2013-01-14 20:10:00,
2013-01-14 15:20:00,53.6,39.6,30.04,NW,312,5.0,5.0,59,0.00,,,0.00,33,Wunderground v.1.15,2013-01-14 20:20:00,
2013-01-14 15:29:00,53.0,36.3,30.05,NW,309,5.0,10.0,53,0.00,,,0.00,44,Wunderground v.1.15,2013-01-14 20:29:00,
2013-01-14 15:35:00,52.8,34.7,30.05,NW,311,5.0,10.0,50,0.00,,,0.00,30,Wunderground v.1.15,2013-01-14 20:35:00,
2013-01-14 15:45:00,52.4,33.8,30.06,NNW,331,3.0,4.0,49,0.00,,,0.00,33,Wunderground v.1.15,2013-01-14 20:45:00,
2013-01-14 15:50:00,52.2,33.1,30.07,NW,308,3.0,3.0,48,0.00,,,0.00,26,Wunderground v.1.15,2013-01-14 20:50:00,
2013-01-14 16:00:00,51.2,33.7,30.07,NW,314,2.0,2.0,51,0.00,,,0.00,33,Wunderground v.1.15,2013-01-14 21:00:00,
2013-01-14 16:05:00,50.3,33.8,30.07,NNW,339,1.0,2.0,53,0.00,,,0.00,18,Wunderground v.1.15,2013-01-14 21:05:00,
2013-01-14 16:15:00,49.7,34.2,30.07,NNW,331,1.0,4.0,55,0.00,,,0.00,18,Wunderground v.1.15,2013-01-14 21:15:00,
2013-01-14 16:25:00,48.2,34.5,30.07,SSE,150,0.0,2.0,59,0.00,,,0.00,9,Wunderground v.1.15,2013-01-14 21:25:00,
2013-01-14 16:30:00,46.9,34.1,30.08,NW,321,0.0,0.0,61,0.00,,,0.00,0,Wunderground v.1.15,2013-01-14 21:30:00,
2013-01-14 16:40:00,47.0,33.4,30.08,NNW,348,1.0,3.0,59,0.00,,,0.00,0,Wunderground v.1.15,2013-01-14 21:40:00,
2013-01-14 16:50:00,45.5,33.6,30.09,NW,306,1.0,1.0,63,0.00,,,0.00,0,Wunderground v.1.15,2013-01-14 21:50:00,
2013-01-14 16:55:00,44.2,33.2,30.10,NW,318,0.0,1.0,65,0.00,,,0.00,0,Wunderground v.1.15,2013-01-14 21:55:00,
2013-01-14 17:00:00,42.5,33.4,30.10,NW,318,0.0,0.0,70,0.00,,,0.00,0,Wunderground v.1.15,2013-01-14 22:00:00,
2013-01-14 17:10:00,41.7,33.0,30.10,NNW,333,1.0,1.0,71,0.00,,,0.00,0,Wunderground v.1.15,2013-01-14 22:10:00,
2013-01-14 17:20:00,43.4,30.4,30.10,NW,317,2.0,4.0,60,0.00,,,0.00,0,Wunderground v.1.15,2013-01-14 22:20:00,
2013-01-14 17:30:00,45.7,30.0,30.10,NNW,332,3.0,3.0,54,0.00,,,0.00,0,Wunderground v.1.15,2013-01-14 22:30:00,
2013-01-14 17:39:00,44.8,30.5,30.11,NE,48,0.0,0.0,57,0.00,,,0.00,0,Wunderground v.1.15,2013-01-14 22:39:00,
2013-01-14 17:45:00,43.5,30.5,30.10,East,83,0.0,0.0,60,0.00,,,0.00,0,Wunderground v.1.15,2013-01-14 22:45:00,
2013-01-14 17:55:00,40.1,30.4,30.10,East,83,0.0,0.0,68,0.00,,,0.00,0,Wunderground v.1.15,2013-01-14 22:55:00,
2013-01-14 18:00:00,38.8,30.2,30.10,East,83,0.0,0.0,71,0.00,,,0.00,0,Wunderground v.1.15,2013-01-14 23:00:00,
2013-01-14 18:10:00,37.3,30.4,30.10,NNW,344,0.0,0.0,76,0.00,,,0.00,0,Wunderground v.1.15,2013-01-14 23:10:00,
2013-01-14 18:20:00,38.6,30.7,30.10,NNW,328,0.0,0.0,73,0.00,,,0.00,0,Wunderground v.1.15,2013-01-14 23:20:00,
2013-01-14 18:30:00,38.1,30.2,30.12,NNW,328,0.0,1.0,73,0.00,,,0.00,0,Wunderground v.1.15,2013-01-14 23:30:00,
2013-01-14 18:40:00,35.9,30.0,30.13,NNW,328,1.0,2.0,79,0.00,,,0.00,0,Wunderground v.1.15,2013-01-14 23:40:00,
2013-01-14 18:50:00,36.2,30.3,30.13,NNW,340,0.0,3.0,79,0.00,,,0.00,0,Wunderground v.1.15,2013-01-14 23:50:00,
2013-01-14 18:55:00,36.8,30.6,30.13,North,349,0.0,3.0,78,0.00,,,0.00,0,Wunderground v.1.15,2013-01-14 23:55:00,
2013-01-14 19:00:00,37.4,31.2,30.13,North,10,0.0,0.0,78,0.00,,,0.00,0,Wunderground v.1.15,2013-01-15 00:00:00,
2013-01-14 19:10:00,37.6,30.4,30.14,NW,315,0.0,0.0,75,0.00,,,0.00,0,Wunderground v.1.15,2013-01-15 00:10:00,
2013-01-14 19:20:00,37.6,30.7,30.15,NW,315,0.0,0.0,76,0.00,,,0.00,0,Wunderground v.1.15,2013-01-15 00:20:00,
2013-01-14 19:25:00,38.1,30.5,30.15,NNE,17,0.0,0.0,74,0.00,,,0.00,0,Wunderground v.1.15,2013-01-15 00:25:00,
2013-01-14 19:35:00,37.6,30.4,30.16,NW,326,0.0,0.0,75,0.00,,,0.00,0,Wunderground v.1.15,2013-01-15 00:35:00,
2013-01-14 19:45:00,37.0,30.5,30.17,NW,326,0.0,0.0,77,0.00,,,0.00,0,Wunderground v.1.15,2013-01-15 00:45:00,
2013-01-14 19:50:00,36.8,30.6,30.17,NW,326,0.0,0.0,78,0.00,,,0.00,0,Wunderground v.1.15,2013-01-15 00:50:00,
2013-01-14 20:00:00,36.3,30.4,30.18,NW,326,0.0,0.0,79,0.00,,,0.00,0,Wunderground v.1.15,2013-01-15 01:00:00,
2013-01-14 20:10:00,36.7,30.5,30.18,NNW,327,1.0,1.0,78,0.00,,,0.00,0,Wunderground v.1.15,2013-01-15 01:10:00,
2013-01-14 20:25:00,38.2,30.0,30.18,North,351,1.0,3.0,72,0.00,,,0.00,0,Wunderground v.1.15,2013-01-15 01:25:00,
2013-01-14 20:30:00,39.0,29.3,30.18,NNW,331,1.0,3.0,68,0.00,,,0.00,0,Wunderground v.1.15,2013-01-15 01:30:00,
2013-01-14 20:40:00,39.8,29.0,30.17,NNW,327,2.0,6.0,65,0.00,,,0.00,0,Wunderground v.1.15,2013-01-15 01:40:00,
2013-01-14 20:50:00,40.0,29.2,30.19,NW,325,2.0,4.0,65,0.00,,,0.00,0,Wunderground v.1.15,2013-01-15 01:50:00,
2013-01-14 20:55:00,40.2,29.0,30.19,NNW,333,2.0,2.0,64,0.00,,,0.00,0,Wunderground v.1.15,2013-01-15 01:55:00,
2013-01-14 21:00:00,40.3,28.7,30.19,NW,309,2.0,3.0,63,0.00,,,0.00,0,Wunderground v.1.15,2013-01-15 02:00:00,
2013-01-14 21:10:00,40.2,28.6,30.19,NNW,347,3.0,5.0,63,0.00,,,0.00,0,Wunderground v.1.15,2013-01-15 02:10:00,
2013-01-14 21:20:00,39.9,28.7,30.18,NNW,333,2.0,2.0,64,0.00,,,0.00,0,Wunderground v.1.15,2013-01-15 02:20:00,
2013-01-14 21:30:00,38.9,28.9,30.18,NW,321,1.0,3.0,67,0.00,,,0.00,0,Wunderground v.1.15,2013-01-15 02:30:00,
2013-01-14 21:40:00,39.3,28.1,30.18,NNW,336,4.0,5.0,64,0.00,,,0.00,0,Wunderground v.1.15,2013-01-15 02:40:00,
2013-01-14 21:50:00,39.5,27.5,30.19,NNW,332,3.0,6.0,62,0.00,,,0.00,0,Wunderground v.1.15,2013-01-15 02:50:00,
2013-01-14 21:55:00,39.5,27.5,30.19,WNW,296,4.0,6.0,62,0.00,,,0.00,0,Wunderground v.1.15,2013-01-15 02:55:00,
2013-01-14 22:00:00,39.4,27.5,30.18,NNW,336,5.0,6.0,62,0.00,,,0.00,0,Wunderground v.1.15,2013-01-15 03:00:00,
2013-01-14 22:10:00,39.1,27.2,30.19,NNW,347,3.0,3.0,62,0.00,,,0.00,0,Wunderground v.1.15,2013-01-15 03:10:00,
2013-01-14 22:20:00,38.7,27.2,30.19,NNW,335,2.0,3.0,63,0.00,,,0.00,0,Wunderground v.1.15,2013-01-15 03:20:00,
2013-01-14 22:30:00,38.6,27.1,30.22,NW,321,2.0,4.0,63,0.00,,,0.00,0,Wunderground v.1.15,2013-01-15 03:30:00,
2013-01-14 22:40:00,38.1,27.4,30.21,NW,320,1.0,4.0,65,0.00,,,0.00,0,Wunderground v.1.15,2013-01-15 03:40:00,
2013-01-14 22:50:00,38.0,27.3,30.21,North,351,1.0,1.0,65,0.00,,,0.00,0,Wunderground v.1.15,2013-01-15 03:50:00,
2013-01-14 23:00:00,37.3,27.7,30.21,NNW,327,1.0,1.0,68,0.00,,,0.00,0,Wunderground v.1.15,2013-01-15 04:00:00,
2013-01-14 23:10:00,37.5,27.2,30.21,NW,322,2.0,2.0,66,0.00,,,0.00,0,Wunderground v.1.15,2013-01-15 04:10:00,
2013-01-14 23:20:00,37.5,27.5,30.21,North,350,1.0,1.0,67,0.00,,,0.00,0,Wunderground v.1.15,2013-01-15 04:20:00,
2013-01-14 23:25:00,37.3,27.7,30.22,WNW,294,0.0,1.0,68,0.00,,,0.00,0,Wunderground v.1.15,2013-01-15 04:25:00,
2013-01-14 23:35:00,37.0,27.4,30.22,NW,315,0.0,1.0,68,0.00,,,0.00,0,Wunderground v.1.15,2013-01-15 04:35:00,
2013-01-14 23:45:00,37.3,27.0,30.23,NW,318,1.0,2.0,66,0.00,,,0.00,0,Wunderground v.1.15,2013-01-15 04:45:00,
2013-01-14 23:55:00,37.5,26.8,30.24,West,272,1.0,1.0,65,0.00,,,0.00,0,Wunderground v.1.15,2013-01-15 04:55:00,